createdAt,value
2023-04-27T00:01:35.203Z,7.20
2023-04-27T00:04:07.766Z,7.20
2023-04-27T00:06:35.345Z,7.10
2023-04-27T00:09:05.159Z,7.00
2023-04-27T00:11:34.888Z,7.00
2023-04-27T00:14:02.897Z,6.90
2023-04-27T00:16:30.362Z,6.90
2023-04-27T00:18:57.738Z,6.90
2023-04-27T00:21:25.350Z,6.80
2023-04-27T00:23:57.697Z,6.80
2023-04-27T00:26:25.249Z,6.70
2023-04-27T00:28:53.849Z,6.70
2023-04-27T00:31:21.449Z,6.60
2023-04-27T00:33:52.210Z,6.60
2023-04-27T00:36:19.582Z,6.60
2023-04-27T00:38:48.647Z,6.50
2023-04-27T00:41:16.129Z,6.50
2023-04-27T00:43:48.568Z,6.40
2023-04-27T00:46:17.053Z,6.40
2023-04-27T00:48:50.222Z,6.40
2023-04-27T00:51:17.598Z,6.40
2023-04-27T00:53:44.953Z,6.30
2023-04-27T00:56:13.257Z,6.30
2023-04-27T00:58:41.263Z,6.20
2023-04-27T01:01:09.737Z,6.20
2023-04-27T01:03:37.768Z,6.10
2023-04-27T01:06:07.148Z,6.00
2023-04-27T01:08:39.870Z,6.10
2023-04-27T01:11:07.266Z,6.10
2023-04-27T01:13:35.529Z,6.00
2023-04-27T01:16:05.054Z,6.00
2023-04-27T01:18:48.789Z,6.00
2023-04-27T01:21:27.559Z,5.90
2023-04-27T01:23:55.159Z,5.90
2023-04-27T01:26:22.731Z,5.90
2023-04-27T01:28:50.027Z,6.00
2023-04-27T01:31:17.349Z,6.00
2023-04-27T01:33:44.534Z,6.00
2023-04-27T01:36:14.471Z,6.00
2023-04-27T01:38:41.761Z,6.10
2023-04-27T01:41:09.426Z,6.10
2023-04-27T01:43:39.902Z,6.10
2023-04-27T01:46:11.564Z,6.10
2023-04-27T01:48:40.344Z,6.20
2023-04-27T01:51:08.149Z,6.20
2023-04-27T01:53:35.438Z,6.20
2023-04-27T01:56:05.161Z,6.20
2023-04-27T01:58:36.199Z,6.20
2023-04-27T02:01:04.958Z,6.10
2023-04-27T02:03:34.794Z,6.10
2023-04-27T02:06:04.985Z,6.10
2023-04-27T02:08:34.959Z,6.10
2023-04-27T02:11:04.461Z,6.00
2023-04-27T02:13:31.757Z,6.00
2023-04-27T02:16:04.259Z,6.00
2023-04-27T02:18:36.344Z,6.00
2023-04-27T02:21:09.380Z,5.90
2023-04-27T02:23:40.288Z,5.90
2023-04-27T02:26:07.623Z,5.90
2023-04-27T02:28:38.653Z,5.80
2023-04-27T02:31:06.550Z,5.80
2023-04-27T02:33:36.549Z,5.70
2023-04-27T02:36:07.149Z,5.70
2023-04-27T02:38:35.599Z,5.70
2023-04-27T02:41:06.364Z,5.60
2023-04-27T02:43:35.579Z,5.60
2023-04-27T02:46:05.996Z,5.50
2023-04-27T02:48:36.002Z,5.50
2023-04-27T02:51:05.112Z,5.50
2023-04-27T02:53:35.636Z,5.40
2023-04-27T02:56:04.263Z,5.40
2023-04-27T02:58:33.651Z,5.40
2023-04-27T03:01:05.169Z,5.40
2023-04-27T03:03:35.080Z,5.50
2023-04-27T03:06:05.014Z,5.50
2023-04-27T03:08:34.465Z,5.50
2023-04-27T03:11:03.253Z,5.50
2023-04-27T03:13:30.668Z,5.50
2023-04-27T03:15:57.869Z,5.60
2023-04-27T03:18:25.304Z,5.60
2023-04-27T03:20:52.566Z,5.60
2023-04-27T03:23:19.695Z,5.60
2023-04-27T03:25:49.007Z,5.60
2023-04-27T03:28:16.723Z,5.50
2023-04-27T03:30:43.963Z,5.60
2023-04-27T03:33:11.337Z,5.60
2023-04-27T03:35:38.816Z,5.60
2023-04-27T03:38:06.580Z,5.60
2023-04-27T03:40:36.635Z,5.60
2023-04-27T03:43:06.717Z,5.60
2023-04-27T03:45:37.307Z,5.60
2023-04-27T03:48:05.339Z,5.60
2023-04-27T03:50:33.614Z,5.60
2023-04-27T03:53:00.910Z,5.50
2023-04-27T03:55:28.702Z,5.60
2023-04-27T03:57:56.231Z,5.60
2023-04-27T04:00:23.575Z,5.60
2023-04-27T04:02:52.472Z,5.60
2023-04-27T04:05:20.422Z,5.60
2023-04-27T04:07:49.368Z,5.60
2023-04-27T04:10:18.612Z,5.60
2023-04-27T04:12:52.190Z,5.60
2023-04-27T04:15:19.489Z,5.60
2023-04-27T04:17:49.468Z,5.60
2023-04-27T04:20:19.134Z,5.60
2023-04-27T04:22:46.431Z,5.60
2023-04-27T04:25:14.331Z,5.60
2023-04-27T04:27:42.401Z,5.60
2023-04-27T04:30:09.876Z,5.70
2023-04-27T04:32:43.592Z,5.70
2023-04-27T04:35:11.447Z,5.70
2023-04-27T04:37:38.583Z,5.70
2023-04-27T04:40:10.682Z,5.70
2023-04-27T04:42:39.176Z,5.70
2023-04-27T04:45:08.810Z,5.70
2023-04-27T04:47:37.035Z,5.80
2023-04-27T04:50:05.291Z,5.80
2023-04-27T04:52:34.740Z,5.80
2023-04-27T04:55:02.100Z,5.90
2023-04-27T04:57:34.264Z,5.90
2023-04-27T05:00:04.093Z,6.00
2023-04-27T05:02:37.454Z,6.10
2023-04-27T05:05:06.105Z,6.10
2023-04-27T05:07:36.885Z,6.20
2023-04-27T05:10:07.702Z,6.20
2023-04-27T05:12:38.427Z,6.30
2023-04-27T05:15:06.559Z,6.30
2023-04-27T05:17:36.448Z,6.40
2023-04-27T05:20:09.092Z,6.40
2023-04-27T05:22:38.987Z,6.50
2023-04-27T05:25:08.458Z,6.60
2023-04-27T05:27:38.995Z,6.60
2023-04-27T05:30:09.998Z,6.60
2023-04-27T05:32:40.370Z,6.70
2023-04-27T05:35:08.010Z,6.70
2023-04-27T05:37:44.334Z,6.80
2023-04-27T05:40:17.669Z,6.80
2023-04-27T05:42:47.195Z,6.80
2023-04-27T05:45:17.367Z,6.90
2023-04-27T05:47:53.681Z,6.90
2023-04-27T05:53:56.408Z,7.00
2023-04-27T05:59:50.745Z,7.30
2023-04-27T06:02:45.488Z,7.50
2023-04-27T06:06:10.285Z,7.60
2023-04-27T06:08:45.260Z,7.80
2023-04-27T06:11:13.692Z,7.90
2023-04-27T06:13:47.747Z,8.10
2023-04-27T06:16:16.839Z,8.20
2023-04-27T06:18:58.172Z,8.30
2023-04-27T06:21:55.236Z,8.40
2023-04-27T06:24:34.465Z,8.40
2023-04-27T06:30:52.071Z,8.60
2023-04-27T06:34:08.685Z,8.80
2023-04-27T06:48:22.965Z,8.90
2023-04-27T06:51:15.709Z,9.00
2023-04-27T06:57:23.933Z,9.20
2023-04-27T07:00:47.036Z,9.30
2023-04-27T07:03:33.957Z,9.30
2023-04-27T07:20:16.306Z,9.60
2023-04-27T07:23:20.649Z,9.60
2023-04-27T07:56:35.790Z,10.70
2023-04-27T08:06:58.021Z,11.20
2023-04-27T08:10:37.924Z,11.30
2023-04-27T08:13:27.045Z,11.40
2023-04-27T08:16:43.802Z,11.50
2023-04-27T08:20:38.226Z,11.50
2023-04-27T08:24:17.218Z,11.70
2023-04-27T08:26:54.282Z,11.90
2023-04-27T08:29:32.185Z,12.00
2023-04-27T08:32:05.390Z,12.00
2023-04-27T08:34:52.351Z,12.00
2023-04-27T08:37:24.285Z,12.00
2023-04-27T08:39:51.987Z,11.80
2023-04-27T08:42:19.160Z,11.80
2023-04-27T08:44:46.658Z,12.00
2023-04-27T08:47:14.096Z,12.10
2023-04-27T08:49:45.207Z,12.20
2023-04-27T08:52:43.732Z,12.50
2023-04-27T08:58:14.275Z,12.90
2023-04-27T09:19:17.693Z,13.30
2023-04-27T09:21:48.802Z,13.40
2023-04-27T09:24:24.798Z,13.30
2023-04-27T09:27:16.572Z,13.40
2023-04-27T09:29:44.326Z,13.50
2023-04-27T09:32:18.603Z,13.60
2023-04-27T09:34:52.295Z,13.80
2023-04-27T09:37:26.550Z,13.90
2023-04-27T09:40:00.190Z,14.00
2023-04-27T09:43:21.187Z,14.10
2023-04-27T09:45:49.461Z,14.10
2023-04-27T09:48:18.015Z,14.00
2023-04-27T09:51:07.186Z,14.30
2023-04-27T09:53:50.613Z,14.40
2023-04-27T09:56:30.075Z,14.50
2023-04-27T09:59:09.125Z,14.70
2023-04-27T10:02:13.553Z,14.80
2023-04-27T10:05:25.943Z,15.00
2023-04-27T10:08:07.999Z,15.20
2023-04-27T10:10:48.937Z,15.20
2023-04-27T10:13:26.551Z,15.20
2023-04-27T10:15:57.724Z,15.40
2023-04-27T10:18:31.668Z,15.70
2023-04-27T10:21:30.981Z,15.80
2023-04-27T10:24:16.233Z,15.90
2023-04-27T10:26:47.294Z,15.80
2023-04-27T10:29:16.557Z,15.90
2023-04-27T10:31:45.024Z,16.10
2023-04-27T10:34:16.058Z,16.10
2023-04-27T10:37:18.164Z,16.10
2023-04-27T10:39:54.719Z,15.90
2023-04-27T10:42:43.231Z,15.80
2023-04-27T10:45:31.982Z,15.70
2023-04-27T10:48:16.277Z,15.80
2023-04-27T10:50:54.986Z,15.90
2023-04-27T10:53:25.050Z,15.90
2023-04-27T10:59:44.507Z,16.10
2023-04-27T11:19:24.856Z,16.40
2023-04-27T11:26:54.824Z,16.60
2023-04-27T11:39:15.470Z,16.20
2023-04-27T11:41:49.668Z,16.10
2023-04-27T11:53:54.034Z,15.90
2023-04-27T11:57:09.468Z,15.80
2023-04-27T12:03:38.672Z,15.70
2023-04-27T12:17:33.408Z,16.00
2023-04-27T12:20:03.765Z,16.00
2023-04-27T12:22:31.236Z,16.10
2023-04-27T12:25:01.472Z,16.10
2023-04-27T12:27:32.902Z,15.90
2023-04-27T12:30:01.420Z,15.70
2023-04-27T12:32:28.839Z,15.60
2023-04-27T12:34:56.662Z,15.70
2023-04-27T12:37:26.698Z,15.90
2023-04-27T12:39:55.216Z,16.20
2023-04-27T12:42:24.665Z,16.50
2023-04-27T12:44:52.325Z,16.90
2023-04-27T12:48:03.283Z,16.80
2023-04-27T13:00:02.051Z,16.80
2023-04-27T13:02:49.359Z,16.40
2023-04-27T13:06:42.146Z,16.40
2023-04-27T13:10:09.384Z,16.40
2023-04-27T13:12:58.158Z,16.00
2023-04-27T13:22:26.599Z,15.70
2023-04-27T13:25:15.684Z,15.70
2023-04-27T13:28:25.891Z,15.70
2023-04-27T13:31:01.854Z,15.70
2023-04-27T13:38:29.631Z,15.80
2023-04-27T13:47:51.618Z,15.10
2023-04-27T13:50:38.949Z,14.90
2023-04-27T13:53:07.148Z,14.80
2023-04-27T13:56:17.230Z,14.70
2023-04-27T13:59:05.467Z,14.50
2023-04-27T14:02:05.563Z,14.50
2023-04-27T14:04:53.161Z,14.40
2023-04-27T14:08:21.356Z,14.30
2023-04-27T14:10:48.461Z,14.20
2023-04-27T14:13:16.003Z,14.10
2023-04-27T14:15:43.342Z,14.00
2023-04-27T14:18:49.973Z,13.90
2023-04-27T14:21:59.741Z,13.90
2023-04-27T14:24:28.692Z,13.80
2023-04-27T14:26:56.643Z,13.80
2023-04-27T14:30:36.583Z,13.80
2023-04-27T14:33:21.833Z,13.80
2023-04-27T14:36:12.545Z,13.80
2023-04-27T14:49:20.531Z,14.10
2023-04-27T14:58:21.100Z,14.00
2023-04-27T15:01:17.205Z,14.00
2023-04-27T15:07:30.732Z,14.00
2023-04-27T15:13:13.547Z,14.00
2023-04-27T15:15:49.611Z,14.00
2023-04-27T15:18:20.524Z,14.00
2023-04-27T15:21:01.090Z,14.00
2023-04-27T15:23:29.705Z,13.90
2023-04-27T15:26:12.366Z,13.90
2023-04-27T15:28:56.259Z,13.90
2023-04-27T15:31:35.209Z,13.80
2023-04-27T15:34:19.099Z,13.70
2023-04-27T15:37:00.123Z,13.60
2023-04-27T15:39:35.233Z,13.50
2023-04-27T15:42:16.990Z,13.40
2023-04-27T15:44:48.247Z,13.40
2023-04-27T15:47:22.005Z,13.50
2023-04-27T15:49:57.817Z,13.60
2023-04-27T15:52:27.377Z,13.60
2023-04-27T15:55:07.867Z,13.50
2023-04-27T15:57:35.447Z,13.50
2023-04-27T16:00:06.938Z,13.30
2023-04-27T16:02:42.562Z,13.20
2023-04-27T16:05:14.961Z,13.10
2023-04-27T16:07:45.485Z,12.90
2023-04-27T16:10:13.457Z,12.70
2023-04-27T16:12:41.452Z,12.60
2023-04-27T16:15:11.383Z,12.60
2023-04-27T16:17:39.020Z,12.50
2023-04-27T16:20:07.498Z,12.50
2023-04-27T16:22:35.347Z,12.40
2023-04-27T16:25:02.901Z,12.40
2023-04-27T16:27:30.205Z,12.20
2023-04-27T16:29:57.595Z,12.20
2023-04-27T16:32:24.835Z,12.10
2023-04-27T16:34:52.035Z,12.10
2023-04-27T16:37:19.801Z,12.00
2023-04-27T16:39:47.093Z,12.00
2023-04-27T16:42:20.124Z,11.90
2023-04-27T16:44:47.632Z,11.90
2023-04-27T16:47:14.965Z,11.80
2023-04-27T16:49:45.098Z,11.80
2023-04-27T16:52:12.464Z,11.70
2023-04-27T16:54:39.635Z,11.60
2023-04-27T16:57:08.025Z,11.50
2023-04-27T16:59:35.639Z,11.50
2023-04-27T17:02:12.958Z,11.40
2023-04-27T17:04:48.647Z,11.40
2023-04-27T17:07:15.841Z,11.40
2023-04-27T17:09:43.019Z,11.30
2023-04-27T17:12:14.852Z,11.20
2023-04-27T17:14:42.916Z,11.20
2023-04-27T17:17:10.589Z,11.10
2023-04-27T17:19:39.116Z,11.10
2023-04-27T17:22:08.294Z,11.10
2023-04-27T17:24:35.548Z,11.10
2023-04-27T17:27:04.447Z,11.10
2023-04-27T17:29:32.078Z,11.10
2023-04-27T17:31:59.685Z,11.10
2023-04-27T17:34:26.866Z,11.10
2023-04-27T17:36:53.960Z,11.00
2023-04-27T17:39:22.816Z,11.00
2023-04-27T17:41:50.154Z,10.90
2023-04-27T17:44:17.390Z,10.90
2023-04-27T17:46:48.234Z,10.80
2023-04-27T17:49:17.054Z,10.80
2023-04-27T17:51:47.466Z,10.80
2023-04-27T17:54:14.806Z,10.70
2023-04-27T17:56:42.983Z,10.70
2023-04-27T17:59:10.197Z,10.70
2023-04-27T18:01:37.546Z,10.70
2023-04-27T18:04:07.379Z,10.70
2023-04-27T18:06:34.694Z,10.70
2023-04-27T18:09:04.040Z,10.60
2023-04-27T18:11:31.450Z,10.60
2023-04-27T18:13:58.616Z,10.60
2023-04-27T18:16:25.970Z,10.60
2023-04-27T18:18:53.239Z,10.60
2023-04-27T18:21:20.620Z,10.60
2023-04-27T18:23:47.950Z,10.50
2023-04-27T18:26:15.155Z,10.60
2023-04-27T18:28:42.534Z,10.50
2023-04-27T18:31:19.250Z,10.60
2023-04-27T18:33:46.548Z,10.60
2023-04-27T18:36:13.785Z,10.60
2023-04-27T18:38:41.314Z,10.60
2023-04-27T18:41:08.427Z,10.60
2023-04-27T18:43:38.641Z,10.60
2023-04-27T18:46:06.224Z,10.60
2023-04-27T18:48:34.063Z,10.60
2023-04-27T18:51:01.275Z,10.50
2023-04-27T18:53:28.989Z,10.60
2023-04-27T18:55:56.394Z,10.50
2023-04-27T18:58:24.010Z,10.50
2023-04-27T19:00:51.458Z,10.50
2023-04-27T19:03:18.727Z,10.50
2023-04-27T19:05:46.172Z,10.60
2023-04-27T19:08:13.531Z,10.50
2023-04-27T19:10:43.601Z,10.50
2023-04-27T19:13:10.845Z,10.50
2023-04-27T19:15:38.231Z,10.50
2023-04-27T19:18:10.409Z,10.40
2023-04-27T19:20:39.105Z,10.40
2023-04-27T19:23:08.096Z,10.50
2023-04-27T19:25:35.595Z,10.40
2023-04-27T19:28:02.845Z,10.40
2023-04-27T19:30:30.224Z,10.40
2023-04-27T19:32:57.428Z,10.30
2023-04-27T19:35:26.509Z,10.30
2023-04-27T19:37:53.753Z,10.30
2023-04-27T19:40:23.260Z,10.30
2023-04-27T19:42:54.231Z,10.30
2023-04-27T19:45:22.370Z,10.30
2023-04-27T19:47:49.570Z,10.30
2023-04-27T19:50:17.406Z,10.30
2023-04-27T19:52:44.720Z,10.20
2023-04-27T19:55:11.928Z,10.10
2023-04-27T19:57:39.240Z,10.10
2023-04-27T20:00:11.838Z,10.00
2023-04-27T20:02:42.313Z,10.00
2023-04-27T20:05:10.325Z,10.10
2023-04-27T20:07:37.785Z,10.10
2023-04-27T20:10:05.826Z,10.10
2023-04-27T20:12:47.449Z,10.10
2023-04-27T20:15:19.285Z,10.20
2023-04-27T20:17:46.458Z,10.20
2023-04-27T20:20:13.758Z,10.20
2023-04-27T20:22:41.200Z,10.20
2023-04-27T20:25:08.659Z,10.20
2023-04-27T20:27:36.017Z,10.20
2023-04-27T20:30:04.600Z,10.20
2023-04-27T20:32:31.893Z,10.20
2023-04-27T20:35:01.437Z,10.20
2023-04-27T20:37:29.965Z,10.20
2023-04-27T20:39:57.106Z,10.30
2023-04-27T20:42:25.058Z,10.30
2023-04-27T20:44:55.064Z,10.30
2023-04-27T20:47:22.613Z,10.30
2023-04-27T20:49:50.037Z,10.40
2023-04-27T20:52:17.960Z,10.40
2023-04-27T20:54:45.519Z,10.50
2023-04-27T20:57:14.341Z,10.50
2023-04-27T20:59:41.875Z,10.50
2023-04-27T21:02:09.096Z,10.60
2023-04-27T21:04:36.534Z,10.60
2023-04-27T21:07:04.492Z,10.60
2023-04-27T21:09:31.857Z,10.60
2023-04-27T21:11:59.193Z,10.70
2023-04-27T21:14:27.179Z,10.70
2023-04-27T21:16:54.349Z,10.70
2023-04-27T21:19:21.590Z,10.70
2023-04-27T21:21:48.934Z,10.80
2023-04-27T21:24:16.032Z,10.80
2023-04-27T21:26:43.265Z,10.80
2023-04-27T21:29:10.572Z,10.80
2023-04-27T21:31:37.776Z,10.90
2023-04-27T21:34:05.070Z,10.90
2023-04-27T21:36:32.712Z,11.00
2023-04-27T21:38:59.940Z,11.00
2023-04-27T21:41:27.366Z,11.00
2023-04-27T21:43:54.738Z,11.10
2023-04-27T21:46:23.444Z,11.10
2023-04-27T21:48:51.008Z,11.00
2023-04-27T21:51:18.299Z,11.10
2023-04-27T21:53:45.916Z,11.10
2023-04-27T21:56:13.080Z,11.10
2023-04-27T21:58:40.308Z,11.10
2023-04-27T22:01:07.463Z,11.10
2023-04-27T22:03:34.917Z,11.10
2023-04-27T22:06:02.719Z,11.10
2023-04-27T22:08:30.007Z,11.10
2023-04-27T22:10:57.112Z,11.10
2023-04-27T22:13:24.374Z,11.10
2023-04-27T22:15:51.604Z,11.10
2023-04-27T22:18:18.921Z,11.10
2023-04-27T22:20:46.369Z,11.20
2023-04-27T22:23:13.709Z,11.10
2023-04-27T22:25:42.977Z,11.20
2023-04-27T22:28:11.060Z,11.20
2023-04-27T22:30:38.550Z,11.20
2023-04-27T22:33:06.439Z,11.20
2023-04-27T22:35:34.511Z,11.20
2023-04-27T22:38:01.706Z,11.20
2023-04-27T22:40:28.984Z,11.20
2023-04-27T22:42:56.507Z,11.20
2023-04-27T22:45:23.688Z,11.20
2023-04-27T22:47:51.710Z,11.20
2023-04-27T22:50:19.202Z,11.20
2023-04-27T22:52:46.289Z,11.20
2023-04-27T22:55:13.523Z,11.20
2023-04-27T22:57:41.828Z,11.20
2023-04-27T23:00:11.812Z,11.30
2023-04-27T23:02:43.063Z,11.30
2023-04-27T23:05:13.342Z,11.20
2023-04-27T23:07:43.074Z,11.30
2023-04-27T23:10:11.049Z,11.20
2023-04-27T23:12:38.861Z,11.30
2023-04-27T23:15:06.396Z,11.30
2023-04-27T23:17:34.227Z,11.30
2023-04-27T23:20:01.986Z,11.30
2023-04-27T23:22:29.728Z,11.30
2023-04-27T23:24:57.009Z,11.40
2023-04-27T23:27:25.074Z,11.40
2023-04-27T23:29:52.920Z,11.40
2023-04-27T23:32:20.572Z,11.40
2023-04-27T23:34:47.713Z,11.50
2023-04-27T23:37:15.029Z,11.50
2023-04-27T23:39:42.408Z,11.50
2023-04-27T23:42:09.474Z,11.50
2023-04-27T23:44:36.614Z,11.50
2023-04-27T23:47:04.569Z,11.50
2023-04-27T23:49:31.672Z,11.50
2023-04-27T23:51:58.788Z,11.60
2023-04-27T23:54:26.689Z,11.60
2023-04-27T23:56:53.788Z,11.60
2023-04-27T23:59:20.925Z,11.60
